createdAt,value
2023-05-08T00:00:42.813Z,85.74
2023-05-08T00:02:14.924Z,85.80
2023-05-08T00:03:47.187Z,85.36
2023-05-08T00:05:19.482Z,85.50
2023-05-08T00:06:54.467Z,85.69
2023-05-08T00:08:26.592Z,85.62
2023-05-08T00:09:58.752Z,85.84
2023-05-08T00:11:30.929Z,85.76
2023-05-08T00:13:03.001Z,85.57
2023-05-08T00:14:35.147Z,85.60
2023-05-08T00:16:09.879Z,85.78
2023-05-08T00:17:42.113Z,85.80
2023-05-08T00:19:14.192Z,85.90
2023-05-08T00:20:46.241Z,85.83
2023-05-08T00:22:18.354Z,85.90
2023-05-08T00:23:50.509Z,85.83
2023-05-08T00:25:22.623Z,85.95
2023-05-08T00:26:54.712Z,86.06
2023-05-08T00:28:27.157Z,86.38
2023-05-08T00:29:59.666Z,86.06
2023-05-08T00:31:31.785Z,86.08
2023-05-08T00:33:03.972Z,86.02
2023-05-08T00:34:36.770Z,86.15
2023-05-08T00:36:09.068Z,86.00
2023-05-08T00:37:41.714Z,85.80
2023-05-08T00:39:13.806Z,86.15
2023-05-08T00:40:45.949Z,86.05
2023-05-08T00:42:17.978Z,85.82
2023-05-08T00:43:50.075Z,86.14
2023-05-08T00:45:22.100Z,86.30
2023-05-08T00:46:54.213Z,86.03
2023-05-08T00:48:29.371Z,86.33
2023-05-08T00:50:01.830Z,86.23
2023-05-08T00:51:34.486Z,86.17
2023-05-08T00:53:06.825Z,86.16
2023-05-08T00:54:39.273Z,85.71
2023-05-08T00:56:13.953Z,85.92
2023-05-08T00:57:48.257Z,86.04
2023-05-08T00:59:21.601Z,86.20
2023-05-08T01:00:56.206Z,86.20
2023-05-08T01:02:28.933Z,86.39
2023-05-08T01:04:01.221Z,86.43
2023-05-08T01:05:33.966Z,86.41
2023-05-08T01:07:06.072Z,86.29
2023-05-08T01:08:38.193Z,86.16
2023-05-08T01:10:11.151Z,86.06
2023-05-08T01:12:04.960Z,85.86
2023-05-08T01:13:48.453Z,86.09
2023-05-08T01:15:55.238Z,86.22
2023-05-08T01:17:51.580Z,86.27
2023-05-08T01:19:54.284Z,86.17
2023-05-08T01:21:41.445Z,86.16
2023-05-08T01:23:31.379Z,86.23
2023-05-08T01:25:09.488Z,86.15
2023-05-08T01:27:03.531Z,86.00
2023-05-08T01:28:54.305Z,86.34
2023-05-08T01:30:48.683Z,86.19
2023-05-08T01:32:33.855Z,86.26
2023-05-08T01:34:10.982Z,86.43
2023-05-08T01:35:48.208Z,86.78
2023-05-08T01:37:31.488Z,86.64
2023-05-08T01:39:19.947Z,86.38
2023-05-08T01:40:55.711Z,86.72
2023-05-08T01:42:46.238Z,86.57
2023-05-08T01:44:20.797Z,86.49
2023-05-08T01:45:54.827Z,86.45
2023-05-08T01:47:30.757Z,86.56
2023-05-08T01:49:11.605Z,86.43
2023-05-08T01:50:47.335Z,86.29
2023-05-08T01:52:26.141Z,85.89
2023-05-08T01:54:04.657Z,86.34
2023-05-08T01:55:38.126Z,86.27
2023-05-08T01:57:10.032Z,86.38
2023-05-08T01:58:42.673Z,86.27
2023-05-08T02:00:17.040Z,86.42
2023-05-08T02:01:53.312Z,86.23
2023-05-08T02:03:26.713Z,86.17
2023-05-08T02:04:59.606Z,86.21
2023-05-08T02:06:32.814Z,86.46
2023-05-08T02:08:05.583Z,86.33
2023-05-08T02:09:38.563Z,86.13
2023-05-08T02:11:12.919Z,85.94
2023-05-08T02:12:45.355Z,86.49
2023-05-08T02:14:19.985Z,86.42
2023-05-08T02:15:54.630Z,86.53
2023-05-08T02:17:27.772Z,86.37
2023-05-08T02:19:01.347Z,86.25
2023-05-08T02:20:33.830Z,86.49
2023-05-08T02:22:06.450Z,86.55
2023-05-08T02:23:38.965Z,86.76
2023-05-08T02:25:14.865Z,86.53
2023-05-08T02:26:47.186Z,86.15
2023-05-08T02:28:20.142Z,86.20
2023-05-08T02:29:52.512Z,86.27
2023-05-08T02:31:25.168Z,85.87
2023-05-08T02:33:00.568Z,85.94
2023-05-08T02:34:33.190Z,86.06
2023-05-08T02:36:05.436Z,85.78
2023-05-08T02:37:38.289Z,85.84
2023-05-08T02:39:12.662Z,86.03
2023-05-08T02:40:51.552Z,86.17
2023-05-08T02:42:23.707Z,86.08
2023-05-08T02:43:55.978Z,86.11
2023-05-08T02:45:34.549Z,86.05
2023-05-08T02:47:16.154Z,86.30
2023-05-08T02:48:57.865Z,86.26
2023-05-08T02:50:52.913Z,85.93
2023-05-08T02:52:30.701Z,85.77
2023-05-08T02:54:10.895Z,85.85
2023-05-08T02:55:51.246Z,85.90
2023-05-08T02:57:49.562Z,85.52
2023-05-08T02:59:32.151Z,85.45
2023-05-08T03:01:24.879Z,85.00
2023-05-08T03:03:01.395Z,85.06
2023-05-08T03:04:39.984Z,85.21
2023-05-08T03:06:15.484Z,85.22
2023-05-08T03:07:51.028Z,84.75
2023-05-08T03:09:26.765Z,84.56
2023-05-08T03:11:03.424Z,84.80
2023-05-08T03:12:36.966Z,84.91
2023-05-08T03:14:12.154Z,85.05
2023-05-08T03:15:55.872Z,84.82
2023-05-08T03:17:29.409Z,84.83
2023-05-08T03:19:01.861Z,84.58
2023-05-08T03:20:38.031Z,84.85
2023-05-08T03:22:10.808Z,85.23
2023-05-08T03:23:43.532Z,85.27
2023-05-08T03:25:17.809Z,84.85
2023-05-08T03:26:49.964Z,85.15
2023-05-08T03:28:23.806Z,85.13
2023-05-08T03:29:56.648Z,85.19
2023-05-08T03:31:28.998Z,85.45
2023-05-08T03:33:02.698Z,85.43
2023-05-08T03:34:35.215Z,85.58
2023-05-08T03:36:08.270Z,85.68
2023-05-08T03:37:40.685Z,85.74
2023-05-08T03:39:12.976Z,85.39
2023-05-08T03:40:45.620Z,85.10
2023-05-08T03:42:22.077Z,84.97
2023-05-08T03:43:55.706Z,85.03
2023-05-08T03:45:28.823Z,85.23
2023-05-08T03:47:01.390Z,85.42
2023-05-08T03:48:37.199Z,85.48
2023-05-08T03:50:09.757Z,85.81
2023-05-08T03:51:42.038Z,85.67
2023-05-08T03:53:14.375Z,85.56
2023-05-08T03:54:46.535Z,85.74
2023-05-08T03:56:18.645Z,85.65
2023-05-08T03:58:12.884Z,85.77
2023-05-08T04:00:03.967Z,85.79
2023-05-08T04:01:42.662Z,86.00
2023-05-08T04:03:23.295Z,86.07
2023-05-08T04:05:07.419Z,86.14
2023-05-08T04:06:51.089Z,86.16
2023-05-08T04:08:25.567Z,86.06
2023-05-08T04:10:06.394Z,86.21
2023-05-08T04:11:54.252Z,86.31
2023-05-08T04:13:28.098Z,86.71
2023-05-08T04:15:26.014Z,86.57
2023-05-08T04:17:02.815Z,86.75
2023-05-08T04:18:37.697Z,86.95
2023-05-08T04:20:12.786Z,86.91
2023-05-08T04:21:45.278Z,87.17
2023-05-08T04:23:19.878Z,87.39
2023-05-08T04:24:53.305Z,87.37
2023-05-08T04:26:25.270Z,87.47
2023-05-08T04:27:59.148Z,87.88
2023-05-08T04:29:31.636Z,88.15
2023-05-08T04:31:04.402Z,88.10
2023-05-08T04:32:40.084Z,88.34
2023-05-08T04:34:13.228Z,88.53
2023-05-08T04:35:46.645Z,88.67
2023-05-08T04:37:26.079Z,88.64
2023-05-08T04:38:59.183Z,89.35
2023-05-08T04:40:31.540Z,89.48
2023-05-08T04:42:05.217Z,89.91
2023-05-08T04:43:37.785Z,90.40
2023-05-08T04:45:10.948Z,90.33
2023-05-08T04:46:43.317Z,89.95
2023-05-08T04:48:15.469Z,90.15
2023-05-08T04:49:47.850Z,89.82
2023-05-08T04:51:20.039Z,90.09
2023-05-08T04:52:52.165Z,90.75
2023-05-08T04:54:24.331Z,90.65
2023-05-08T04:55:57.703Z,90.26
2023-05-08T04:57:29.622Z,90.04
2023-05-08T04:59:01.789Z,89.90
2023-05-08T05:00:35.320Z,89.23
2023-05-08T05:02:08.623Z,89.26
2023-05-08T05:03:40.914Z,88.95
2023-05-08T05:05:13.346Z,88.56
2023-05-08T05:06:45.787Z,88.20
2023-05-08T05:08:17.874Z,87.79
2023-05-08T05:09:50.035Z,88.42
2023-05-08T05:11:25.132Z,88.68
2023-05-08T05:12:57.229Z,88.00
2023-05-08T05:14:29.322Z,87.40
2023-05-08T05:16:01.591Z,86.52
2023-05-08T05:17:33.915Z,86.16
2023-05-08T05:19:06.031Z,85.97
2023-05-08T05:20:38.178Z,85.13
2023-05-08T05:22:10.517Z,84.93
2023-05-08T05:23:42.798Z,84.80
2023-05-08T05:25:15.389Z,84.66
2023-05-08T05:26:47.637Z,83.02
2023-05-08T05:28:19.754Z,82.23
2023-05-08T05:29:52.050Z,83.30
2023-05-08T05:31:24.151Z,81.34
2023-05-08T05:32:56.291Z,81.85
2023-05-08T05:34:28.479Z,81.04
2023-05-08T05:36:01.061Z,79.42
2023-05-08T05:37:33.195Z,80.03
2023-05-08T05:39:05.303Z,79.98
2023-05-08T05:40:37.491Z,80.12
2023-05-08T05:42:09.731Z,79.79
2023-05-08T05:43:41.901Z,79.24
2023-05-08T05:45:14.367Z,78.33
2023-05-08T05:46:46.728Z,77.86
2023-05-08T05:48:18.800Z,77.90
2023-05-08T05:49:50.894Z,77.73
2023-05-08T05:51:22.966Z,77.18
2023-05-08T05:52:55.624Z,76.83
2023-05-08T05:54:27.751Z,76.71
2023-05-08T05:55:59.896Z,76.95
2023-05-08T05:57:32.245Z,76.60
2023-05-08T05:59:04.604Z,76.57
2023-05-08T06:00:36.845Z,76.95
2023-05-08T06:02:10.745Z,76.94
2023-05-08T06:03:42.987Z,76.30
2023-05-08T06:05:15.676Z,76.02
2023-05-08T06:06:47.804Z,75.60
2023-05-08T06:08:19.885Z,74.67
2023-05-08T06:09:53.530Z,73.88
2023-05-08T06:11:26.137Z,73.95
2023-05-08T06:12:58.311Z,73.93
2023-05-08T06:14:30.462Z,74.25
2023-05-08T06:16:06.291Z,73.61
2023-05-08T06:17:38.624Z,71.47
2023-05-08T06:19:11.328Z,71.21
2023-05-08T06:20:43.721Z,71.13
2023-05-08T06:22:15.813Z,71.47
2023-05-08T06:23:47.917Z,69.98
2023-05-08T06:25:20.281Z,70.61
2023-05-08T06:26:54.687Z,70.18
2023-05-08T06:28:27.798Z,69.45
2023-05-08T06:29:59.952Z,69.79
2023-05-08T06:31:32.067Z,70.04
2023-05-08T06:33:04.514Z,70.03
2023-05-08T06:34:36.747Z,69.67
2023-05-08T06:36:09.136Z,70.01
2023-05-08T06:37:41.254Z,69.46
2023-05-08T06:39:13.369Z,69.40
2023-05-08T06:40:46.241Z,69.11
2023-05-08T06:42:18.468Z,68.26
2023-05-08T06:43:50.689Z,67.42
2023-05-08T06:45:22.851Z,67.77
2023-05-08T06:46:55.640Z,68.00
2023-05-08T06:48:29.629Z,67.65
2023-05-08T06:50:01.776Z,67.41
2023-05-08T06:51:35.877Z,67.54
2023-05-08T06:53:08.428Z,67.13
2023-05-08T06:54:41.886Z,67.09
2023-05-08T06:56:14.008Z,66.33
2023-05-08T06:57:46.188Z,66.40
2023-05-08T06:59:18.406Z,67.04
2023-05-08T07:00:50.897Z,66.55
2023-05-08T07:02:23.116Z,66.66
2023-05-08T07:03:55.242Z,65.75
2023-05-08T07:05:27.345Z,65.89
2023-05-08T07:06:59.547Z,63.14
2023-05-08T07:08:32.761Z,62.54
2023-05-08T07:10:07.189Z,62.28
2023-05-08T07:11:39.987Z,61.69
2023-05-08T07:13:12.146Z,62.01
2023-05-08T07:14:44.206Z,62.73
2023-05-08T07:16:18.175Z,61.80
2023-05-08T07:17:50.364Z,61.33
2023-05-08T07:19:22.779Z,61.88
2023-05-08T07:20:56.315Z,60.75
2023-05-08T07:22:28.432Z,61.64
2023-05-08T07:24:00.649Z,60.72
2023-05-08T07:25:32.784Z,59.68
2023-05-08T07:27:05.141Z,57.44
2023-05-08T07:28:37.519Z,57.16
2023-05-08T07:30:13.019Z,57.19
2023-05-08T07:31:57.811Z,54.88
2023-05-08T08:35:55.097Z,58.18
2023-05-08T08:37:27.559Z,58.01
2023-05-08T08:38:59.949Z,60.08
2023-05-08T08:40:32.189Z,58.35
2023-05-08T08:42:04.748Z,57.83
2023-05-08T08:43:40.194Z,58.26
2023-05-08T08:45:12.807Z,60.97
2023-05-08T08:46:51.740Z,56.82
2023-05-08T08:48:28.972Z,57.91
2023-05-08T08:50:04.197Z,57.33
2023-05-08T08:51:55.202Z,55.11
2023-05-08T08:53:28.076Z,57.25
2023-05-08T08:55:02.090Z,58.04
2023-05-08T08:56:35.047Z,58.62
2023-05-08T08:58:15.720Z,59.82
2023-05-08T08:59:48.101Z,56.94
2023-05-08T09:01:21.325Z,57.81
2023-05-08T09:02:53.784Z,56.06
2023-05-08T09:04:27.824Z,58.15
2023-05-08T09:06:03.655Z,56.73
2023-05-08T09:07:36.486Z,55.33
2023-05-08T09:09:08.987Z,53.83
2023-05-08T09:10:41.629Z,55.30
2023-05-08T09:12:14.928Z,55.68
2023-05-08T09:13:46.926Z,55.79
2023-05-08T09:15:19.245Z,55.83
2023-05-08T09:16:51.658Z,57.76
2023-05-08T09:18:23.974Z,55.52
2023-05-08T09:21:28.106Z,54.32
2023-05-08T09:23:03.357Z,54.74
2023-05-08T09:24:53.929Z,55.27
2023-05-08T09:26:38.019Z,56.99
2023-05-08T09:28:24.239Z,55.74
2023-05-08T09:29:59.513Z,57.06
2023-05-08T09:31:40.317Z,57.76
2023-05-08T09:33:12.591Z,58.41
2023-05-08T09:34:53.109Z,54.58
2023-05-08T09:36:28.966Z,54.71
2023-05-08T09:38:01.152Z,54.35
2023-05-08T09:39:33.490Z,54.16
2023-05-08T09:41:16.281Z,55.08
2023-05-08T09:42:50.097Z,56.23
2023-05-08T09:44:22.230Z,53.94
2023-05-08T09:45:54.517Z,53.22
2023-05-08T09:47:26.873Z,54.30
2023-05-08T09:49:00.843Z,53.89
2023-05-08T09:50:34.014Z,55.44
2023-05-08T09:52:06.329Z,56.01
2023-05-08T09:53:38.554Z,53.72
2023-05-08T09:55:11.819Z,53.25
2023-05-08T09:56:43.829Z,53.42
2023-05-08T09:58:16.047Z,54.20
2023-05-08T09:59:48.174Z,55.34
2023-05-08T10:01:36.207Z,55.31
2023-05-08T10:03:08.613Z,55.76
2023-05-08T10:04:41.000Z,55.98
2023-05-08T10:06:15.173Z,54.49
2023-05-08T10:07:47.528Z,54.63
2023-05-08T10:09:19.992Z,55.15
2023-05-08T10:10:52.497Z,55.43
2023-05-08T10:12:25.368Z,55.43
2023-05-08T10:14:00.329Z,56.40
2023-05-08T10:15:33.310Z,55.90
2023-05-08T10:17:07.010Z,55.52
2023-05-08T10:18:40.216Z,55.21
2023-05-08T10:20:15.246Z,55.48
2023-05-08T10:21:49.924Z,55.19
2023-05-08T10:23:23.214Z,55.70
2023-05-08T10:24:56.681Z,54.74
2023-05-08T10:26:32.265Z,54.28
2023-05-08T10:28:24.888Z,55.22
2023-05-08T10:30:02.634Z,55.19
2023-05-08T10:31:36.866Z,55.02
2023-05-08T10:33:11.192Z,54.79
2023-05-08T10:34:44.576Z,55.54
2023-05-08T10:36:17.313Z,54.60
2023-05-08T10:37:50.457Z,54.61
2023-05-08T10:39:23.319Z,54.64
2023-05-08T10:40:58.482Z,55.92
2023-05-08T10:42:30.998Z,56.40
2023-05-08T10:44:03.700Z,56.88
2023-05-08T10:45:36.311Z,54.69
2023-05-08T10:47:23.349Z,55.80
2023-05-08T10:49:07.376Z,55.12
2023-05-08T10:50:59.437Z,54.84
2023-05-08T10:52:43.137Z,56.09
2023-05-08T10:54:35.349Z,55.62
2023-05-08T10:56:08.044Z,55.12
2023-05-08T10:57:41.085Z,56.22
2023-05-08T10:59:20.385Z,58.00
2023-05-08T11:00:52.918Z,58.64
2023-05-08T11:02:33.275Z,57.82
2023-05-08T11:04:21.229Z,57.13
2023-05-08T11:05:55.188Z,57.92
2023-05-08T11:07:32.288Z,58.40
2023-05-08T11:09:06.694Z,58.41
2023-05-08T11:10:41.355Z,59.23
2023-05-08T11:12:29.151Z,57.60
2023-05-08T11:14:09.996Z,57.07
2023-05-08T11:15:42.957Z,57.97
2023-05-08T11:17:24.111Z,58.79
2023-05-08T11:19:18.772Z,58.34
2023-05-08T11:21:05.483Z,58.61
2023-05-08T11:22:38.695Z,58.87
2023-05-08T11:24:12.276Z,59.53
2023-05-08T11:25:45.266Z,58.49
2023-05-08T11:27:17.811Z,59.40
2023-05-08T11:28:57.241Z,59.35
2023-05-08T11:30:36.563Z,59.26
2023-05-08T11:32:08.989Z,59.30
2023-05-08T11:33:41.829Z,61.45
2023-05-08T11:35:15.237Z,59.30
2023-05-08T11:37:02.572Z,59.73
2023-05-08T11:38:36.835Z,59.82
2023-05-08T11:40:53.612Z,59.66
2023-05-08T11:42:26.066Z,60.26
2023-05-08T11:44:09.910Z,59.17
2023-05-08T11:45:43.373Z,58.83
2023-05-08T11:47:19.409Z,58.94
2023-05-08T11:49:00.308Z,58.71
2023-05-08T11:50:32.612Z,58.38
2023-05-08T11:52:06.503Z,59.09
2023-05-08T11:53:38.954Z,58.42
2023-05-08T11:55:12.666Z,60.86
2023-05-08T11:56:49.007Z,61.33
2023-05-08T11:58:22.074Z,60.50
2023-05-08T11:59:56.978Z,61.09
2023-05-08T12:01:29.154Z,57.56
2023-05-08T12:03:01.493Z,60.30
2023-05-08T12:04:44.102Z,59.69
2023-05-08T12:06:16.710Z,59.00
2023-05-08T12:07:49.347Z,57.32
2023-05-08T12:09:22.715Z,57.35
2023-05-08T12:10:56.139Z,56.97
2023-05-08T12:12:41.690Z,57.01
2023-05-08T12:14:15.612Z,56.52
2023-05-08T12:15:49.371Z,55.93
2023-05-08T12:17:21.926Z,55.46
2023-05-08T12:18:57.272Z,53.13
2023-05-08T12:20:30.244Z,53.46
2023-05-08T12:22:03.171Z,53.08
2023-05-08T12:23:35.560Z,52.64
2023-05-08T12:25:09.592Z,52.30
2023-05-08T12:26:42.003Z,53.78
2023-05-08T12:28:14.285Z,52.84
2023-05-08T12:29:47.476Z,54.70
2023-05-08T12:31:19.714Z,53.79
2023-05-08T12:32:52.193Z,55.11
2023-05-08T12:34:25.003Z,54.89
2023-05-08T12:35:57.735Z,54.95
2023-05-08T12:37:30.094Z,53.39
2023-05-08T12:39:18.945Z,52.40
2023-05-08T12:40:53.613Z,53.22
2023-05-08T12:42:48.902Z,53.96
2023-05-08T12:44:25.896Z,52.78
2023-05-08T12:45:58.189Z,53.34
2023-05-08T12:47:31.159Z,53.69
2023-05-08T12:49:11.755Z,56.18
2023-05-08T12:50:46.212Z,53.18
2023-05-08T12:52:19.740Z,53.07
2023-05-08T12:53:51.932Z,54.21
2023-05-08T12:55:28.171Z,54.50
2023-05-08T12:57:00.343Z,53.74
2023-05-08T12:58:34.868Z,56.01
2023-05-08T13:00:07.834Z,55.40
2023-05-08T13:01:39.961Z,55.17
2023-05-08T13:03:14.514Z,54.81
2023-05-08T13:04:48.108Z,55.98
2023-05-08T13:06:21.894Z,54.05
2023-05-08T13:08:00.274Z,54.10
2023-05-08T13:09:32.836Z,54.17
2023-05-08T13:11:08.819Z,54.46
2023-05-08T13:12:41.105Z,55.66
2023-05-08T13:14:13.391Z,56.16
2023-05-08T13:15:46.247Z,55.75
2023-05-08T13:17:19.390Z,55.78
2023-05-08T13:18:51.843Z,55.74
2023-05-08T13:20:24.147Z,56.21
2023-05-08T13:21:56.396Z,56.85
2023-05-08T13:23:29.294Z,57.21
2023-05-08T13:25:04.460Z,59.72
2023-05-08T13:26:36.748Z,60.35
2023-05-08T13:28:10.012Z,59.84
2023-05-08T13:29:42.128Z,61.39
2023-05-08T13:31:14.406Z,59.46
2023-05-08T13:32:46.787Z,62.17
2023-05-08T13:34:19.041Z,61.74
2023-05-08T13:35:51.366Z,59.93
2023-05-08T13:37:23.563Z,63.23
2023-05-08T13:38:57.857Z,62.75
2023-05-08T13:40:30.414Z,61.28
2023-05-08T13:42:02.729Z,62.74
2023-05-08T13:43:37.215Z,63.13
2023-05-08T13:45:16.944Z,63.30
2023-05-08T13:46:49.254Z,64.02
2023-05-08T13:48:21.504Z,63.96
2023-05-08T13:49:53.873Z,64.89
2023-05-08T13:51:26.967Z,64.90
2023-05-08T13:52:59.274Z,64.90
2023-05-08T13:54:31.931Z,63.87
2023-05-08T13:56:04.427Z,64.00
2023-05-08T13:57:37.206Z,65.52
2023-05-08T13:59:09.524Z,65.86
2023-05-08T14:00:41.820Z,66.26
2023-05-08T14:02:14.733Z,66.41
2023-05-08T14:03:47.193Z,66.24
2023-05-08T14:05:19.613Z,66.52
2023-05-08T14:06:51.680Z,66.07
2023-05-08T14:08:24.014Z,67.15
2023-05-08T14:09:56.333Z,67.15
2023-05-08T14:11:29.979Z,67.56
2023-05-08T14:13:02.265Z,65.75
2023-05-08T14:14:34.691Z,65.98
2023-05-08T14:16:08.604Z,65.56
2023-05-08T14:17:42.532Z,65.63
2023-05-08T14:19:14.896Z,65.50
2023-05-08T14:20:51.659Z,66.81
2023-05-08T14:22:29.013Z,66.95
2023-05-08T14:24:01.924Z,66.87
2023-05-08T14:25:34.192Z,67.93
2023-05-08T14:27:06.477Z,69.67
2023-05-08T14:28:38.732Z,69.26
2023-05-08T14:30:11.569Z,69.60
2023-05-08T14:31:44.006Z,70.68
2023-05-08T14:33:18.524Z,72.04
2023-05-08T14:34:51.590Z,72.86
2023-05-08T14:36:23.895Z,72.46
2023-05-08T14:37:56.188Z,74.03
2023-05-08T14:39:28.436Z,75.03
2023-05-08T14:41:04.364Z,75.70
2023-05-08T14:42:37.052Z,76.17
2023-05-08T14:44:09.385Z,76.93
2023-05-08T14:45:41.655Z,77.66
2023-05-08T14:47:13.893Z,77.84
2023-05-08T14:48:46.114Z,78.30
2023-05-08T14:50:18.481Z,78.60
2023-05-08T14:51:50.668Z,79.80
2023-05-08T14:53:23.817Z,80.10
2023-05-08T14:54:56.472Z,80.65
2023-05-08T14:56:34.595Z,81.00
2023-05-08T14:58:12.804Z,81.34
2023-05-08T14:59:54.156Z,81.86
2023-05-08T15:01:27.996Z,83.22
2023-05-08T15:03:00.317Z,84.00
2023-05-08T15:04:32.600Z,84.40
2023-05-08T15:06:05.487Z,84.66
2023-05-08T15:07:39.024Z,84.52
2023-05-08T15:09:12.796Z,84.91
2023-05-08T15:10:45.095Z,85.35
2023-05-08T15:12:17.224Z,85.93
2023-05-08T15:13:49.484Z,86.11
2023-05-08T15:15:21.689Z,86.20
2023-05-08T15:16:53.972Z,86.21
2023-05-08T15:18:28.965Z,86.29
2023-05-08T15:20:01.128Z,86.13
2023-05-08T15:21:33.395Z,86.08
2023-05-08T15:23:05.902Z,86.68
2023-05-08T15:24:38.235Z,87.08
2023-05-08T15:26:10.985Z,87.32
2023-05-08T15:27:45.503Z,86.91
2023-05-08T15:29:17.634Z,86.92
2023-05-08T15:30:49.879Z,86.92
2023-05-08T15:32:22.342Z,86.63
2023-05-08T15:33:54.480Z,86.96
2023-05-08T15:35:27.111Z,87.20
2023-05-08T15:36:59.270Z,87.50
2023-05-08T15:38:31.596Z,87.58
2023-05-08T15:40:03.943Z,87.61
2023-05-08T15:41:37.691Z,87.68
2023-05-08T15:43:09.820Z,87.71
2023-05-08T15:44:54.450Z,87.83
2023-05-08T15:46:27.145Z,87.86
2023-05-08T15:47:59.402Z,87.88
2023-05-08T15:49:31.632Z,87.90
2023-05-08T15:51:03.930Z,87.98
2023-05-08T15:52:36.055Z,87.93
2023-05-08T15:54:08.295Z,88.02
2023-05-08T15:55:40.474Z,87.99
2023-05-08T15:57:12.642Z,87.98
2023-05-08T15:58:44.915Z,88.06
2023-05-08T16:00:17.407Z,88.24
2023-05-08T16:01:50.812Z,88.33
2023-05-08T16:03:24.876Z,88.70
2023-05-08T16:04:57.277Z,88.60
2023-05-08T16:06:29.486Z,89.07
2023-05-08T16:08:01.883Z,89.25
2023-05-08T16:09:34.023Z,89.34
2023-05-08T16:11:06.174Z,89.41
2023-05-08T16:12:38.418Z,89.61
2023-05-08T16:14:10.601Z,89.69
2023-05-08T16:15:43.924Z,89.68
2023-05-08T16:17:16.101Z,89.41
2023-05-08T16:18:48.257Z,89.68
2023-05-08T16:20:20.782Z,89.71
2023-05-08T16:21:52.879Z,89.73
2023-05-08T16:23:25.027Z,89.85
2023-05-08T16:24:57.341Z,90.20
2023-05-08T16:26:29.447Z,90.34
2023-05-08T16:28:01.584Z,90.30
2023-05-08T16:29:33.656Z,90.33
2023-05-08T16:31:07.997Z,90.44
2023-05-08T16:32:43.211Z,90.20
2023-05-08T16:34:15.389Z,90.29
2023-05-08T16:35:47.549Z,90.17
2023-05-08T16:37:19.913Z,90.14
2023-05-08T16:38:52.382Z,90.40
2023-05-08T16:40:24.451Z,90.57
2023-05-08T16:41:56.698Z,90.80
2023-05-08T16:43:28.844Z,90.77
2023-05-08T16:45:01.054Z,91.16
2023-05-08T16:46:33.284Z,91.68
2023-05-08T16:48:05.537Z,92.12
2023-05-08T16:49:37.828Z,92.19
2023-05-08T16:51:09.992Z,91.92
2023-05-08T16:52:42.033Z,91.69
2023-05-08T16:54:14.270Z,91.43
2023-05-08T16:55:46.598Z,90.83
2023-05-08T16:57:18.833Z,90.69
2023-05-08T16:58:51.020Z,90.16
2023-05-08T17:00:23.547Z,90.13
2023-05-08T17:01:55.774Z,90.07
2023-05-08T17:03:28.125Z,90.25
2023-05-08T17:05:00.327Z,90.30
2023-05-08T17:08:04.349Z,89.54
2023-05-08T17:09:36.423Z,89.86
2023-05-08T17:11:08.580Z,89.82
2023-05-08T17:12:40.683Z,89.84
2023-05-08T17:14:13.036Z,89.97
2023-05-08T17:15:45.143Z,90.14
2023-05-08T17:17:17.418Z,89.91
2023-05-08T17:18:51.948Z,89.98
2023-05-08T17:20:24.357Z,89.96
2023-05-08T17:21:58.232Z,89.97
2023-05-08T17:23:31.863Z,89.65
2023-05-08T17:25:04.160Z,89.78
2023-05-08T17:26:36.881Z,89.79
2023-05-08T17:28:09.038Z,89.66
2023-05-08T17:29:41.259Z,90.00
2023-05-08T17:31:15.076Z,89.84
2023-05-08T17:32:51.939Z,90.04
2023-05-08T17:34:24.184Z,90.03
2023-05-08T17:35:56.367Z,90.13
2023-05-08T17:37:28.452Z,90.39
2023-05-08T17:39:00.587Z,90.83
2023-05-08T17:40:33.536Z,90.89
2023-05-08T17:42:06.164Z,91.38
2023-05-08T17:43:38.490Z,91.61
2023-05-08T17:45:11.068Z,91.76
2023-05-08T17:46:43.231Z,92.03
2023-05-08T17:48:15.373Z,92.18
2023-05-08T17:49:47.671Z,92.44
2023-05-08T17:51:19.777Z,93.20
2023-05-08T17:52:52.176Z,93.15
2023-05-08T17:54:24.427Z,93.19
2023-05-08T17:55:57.146Z,92.97
2023-05-08T17:57:29.316Z,93.00
2023-05-08T17:59:01.388Z,92.87
2023-05-08T18:00:33.544Z,92.83
2023-05-08T18:02:05.749Z,92.92
2023-05-08T18:03:38.028Z,93.08
2023-05-08T18:05:10.457Z,92.80
2023-05-08T18:06:43.828Z,92.29
2023-05-08T18:08:15.791Z,92.21
2023-05-08T18:09:47.892Z,92.44
2023-05-08T18:11:22.764Z,92.47
2023-05-08T18:12:54.889Z,92.25
2023-05-08T18:14:30.369Z,92.44
2023-05-08T18:16:02.543Z,92.67
2023-05-08T18:17:34.863Z,92.69
2023-05-08T18:19:07.119Z,92.84
2023-05-08T18:20:39.405Z,92.97
2023-05-08T18:22:11.567Z,93.08
2023-05-08T18:23:43.749Z,92.94
2023-05-08T18:25:16.008Z,93.14
2023-05-08T18:26:48.815Z,93.35
2023-05-08T18:28:22.284Z,93.44
2023-05-08T18:29:54.628Z,93.87
2023-05-08T18:31:26.704Z,93.48
2023-05-08T18:32:58.953Z,93.60
2023-05-08T18:34:32.794Z,93.77
2023-05-08T18:36:07.433Z,93.88
2023-05-08T18:37:39.606Z,93.92
2023-05-08T18:39:11.689Z,93.89
2023-05-08T18:40:44.645Z,93.77
2023-05-08T18:42:16.761Z,93.70
2023-05-08T18:43:48.969Z,93.57
2023-05-08T18:45:21.243Z,93.37
2023-05-08T18:46:53.378Z,93.09
2023-05-08T18:48:27.432Z,93.12
2023-05-08T18:50:00.378Z,92.91
2023-05-08T18:51:32.612Z,92.79
2023-05-08T18:53:04.799Z,92.84
2023-05-08T18:54:36.946Z,92.61
2023-05-08T18:56:09.154Z,92.55
2023-05-08T18:57:41.264Z,92.49
2023-05-08T18:59:13.319Z,92.50
2023-05-08T19:00:45.507Z,92.37
2023-05-08T19:02:17.664Z,92.27
2023-05-08T19:03:49.790Z,92.37
2023-05-08T19:05:22.207Z,92.08
2023-05-08T19:06:54.373Z,91.96
2023-05-08T19:08:26.530Z,91.87
2023-05-08T19:09:58.682Z,91.82
2023-05-08T19:11:30.800Z,91.88
2023-05-08T19:13:03.074Z,91.67
2023-05-08T19:14:35.314Z,91.33
2023-05-08T19:16:07.432Z,91.57
2023-05-08T19:17:40.516Z,91.00
2023-05-08T19:19:12.779Z,91.00
2023-05-08T19:20:44.903Z,91.02
2023-05-08T19:22:17.003Z,90.64
2023-05-08T19:23:49.138Z,90.82
2023-05-08T19:25:21.393Z,90.62
2023-05-08T19:26:53.538Z,90.87
2023-05-08T19:28:25.831Z,90.91
2023-05-08T19:29:57.944Z,90.54
2023-05-08T19:31:30.070Z,90.77
2023-05-08T19:33:02.252Z,91.01
2023-05-08T19:34:37.344Z,91.07
2023-05-08T19:36:09.469Z,91.07
2023-05-08T19:37:41.718Z,91.21
2023-05-08T19:39:14.969Z,90.96
2023-05-08T19:40:56.709Z,91.21
2023-05-08T19:42:30.001Z,91.21
2023-05-08T19:44:02.203Z,91.36
2023-05-08T19:45:34.364Z,91.44
2023-05-08T19:47:06.827Z,91.62
2023-05-08T19:48:38.966Z,91.50
2023-05-08T19:50:15.428Z,91.63
2023-05-08T19:51:49.071Z,91.64
2023-05-08T19:53:21.229Z,91.53
2023-05-08T19:54:53.318Z,91.75
2023-05-08T19:56:26.219Z,91.77
2023-05-08T19:57:58.361Z,91.69
2023-05-08T19:59:30.532Z,91.70
2023-05-08T20:01:02.687Z,91.34
2023-05-08T20:02:35.208Z,91.28
2023-05-08T20:04:07.412Z,91.57
2023-05-08T20:05:39.597Z,91.73
2023-05-08T20:07:11.716Z,91.60
2023-05-08T20:08:43.906Z,91.57
2023-05-08T20:10:16.378Z,91.73
2023-05-08T20:11:48.669Z,91.72
2023-05-08T20:13:20.976Z,91.69
2023-05-08T20:14:53.906Z,91.50
2023-05-08T20:16:28.422Z,91.48
2023-05-08T20:18:00.789Z,91.65
2023-05-08T20:19:35.660Z,91.62
2023-05-08T20:21:07.922Z,91.59
2023-05-08T20:22:39.992Z,91.61
2023-05-08T20:24:12.177Z,91.67
2023-05-08T20:25:46.830Z,91.64
2023-05-08T20:27:18.911Z,91.41
2023-05-08T20:28:51.043Z,91.42
2023-05-08T20:30:23.914Z,91.14
2023-05-08T20:31:56.292Z,91.00
2023-05-08T20:33:28.448Z,90.75
2023-05-08T20:35:00.633Z,90.85
2023-05-08T20:36:34.902Z,91.02
2023-05-08T20:38:07.099Z,91.04
2023-05-08T20:39:39.226Z,91.01
2023-05-08T20:41:11.417Z,90.93
2023-05-08T20:42:43.673Z,90.85
2023-05-08T20:44:18.048Z,91.12
2023-05-08T20:45:50.273Z,91.18
2023-05-08T20:47:22.939Z,91.11
2023-05-08T20:48:56.569Z,91.37
2023-05-08T20:50:28.848Z,91.54
2023-05-08T20:52:00.905Z,91.44
2023-05-08T20:53:33.231Z,91.32
2023-05-08T20:55:05.844Z,91.21
2023-05-08T20:56:38.109Z,91.21
2023-05-08T20:58:10.193Z,91.23
2023-05-08T20:59:42.337Z,91.01
2023-05-08T21:01:14.545Z,91.12
2023-05-08T21:02:47.134Z,91.11
2023-05-08T21:04:19.363Z,91.23
2023-05-08T21:05:52.135Z,91.27
2023-05-08T21:07:24.335Z,91.14
2023-05-08T21:08:58.154Z,91.31
2023-05-08T21:10:31.758Z,91.40
2023-05-08T21:12:03.976Z,91.11
2023-05-08T21:13:36.100Z,91.10
2023-05-08T21:15:08.833Z,91.21
2023-05-08T21:16:40.876Z,91.24
2023-05-08T21:18:14.053Z,91.17
2023-05-08T21:21:20.377Z,91.36